Time;durP1;ratioP1;P1;durP2;ratioP2;P2;SDS_P1;SDS_P2;PMS_P1;PMS_P2;Temp;Humidity;BMP_temperature;BMP_pressure;BME280_temperature;BME280_humidity;BME280_pressure;Samples;Min_cycle;Max_cycle;Signal;HPM_P1;HPM_P2
2023/04/07 00:01:13;;;;;;;27.05;12.98;;;;;;;18.80;62.12;99010.94;4944629;29;20043;-64
2023/04/07 00:03:43;;;;;;;24.15;13.10;;;;;;;18.77;61.23;99011.41;4946530;28;20039;-64
2023/04/07 00:06:12;;;;;;;24.80;13.95;;;;;;;18.77;62.13;99010.56;4944234;29;20664;-63
2023/04/07 00:08:42;;;;;;;31.70;13.45;;;;;;;18.79;61.74;99011.16;4944731;29;20302;-65
2023/04/07 00:11:12;;;;;;;22.88;13.30;;;;;;;18.78;61.28;99020.25;4928490;29;20641;-64
2023/04/07 00:13:41;;;;;;;20.70;13.25;;;;;;;18.75;62.25;99024.25;4944564;29;20047;-62
2023/04/07 00:16:11;;;;;;;28.73;14.20;;;;;;;18.70;63.15;99023.31;4944287;29;20058;-63
2023/04/07 00:18:40;;;;;;;25.10;14.30;;;;;;;18.64;63.24;99030.44;4944777;29;20089;-63
2023/04/07 00:21:09;;;;;;;25.15;13.55;;;;;;;18.62;63.17;99029.06;4944420;29;20138;-63
2023/04/07 00:23:39;;;;;;;26.02;14.25;;;;;;;18.55;61.59;99031.03;4944802;28;20055;-65
2023/04/07 00:26:08;;;;;;;27.75;13.57;;;;;;;18.54;62.33;99035.63;4928297;29;20043;-65
2023/04/07 00:28:39;;;;;;;26.38;13.95;;;;;;;18.53;62.96;99033.97;4927885;29;20047;-63
2023/04/07 00:31:08;;;;;;;31.23;13.88;;;;;;;18.46;63.62;99033.22;4932867;28;20081;-66
2023/04/07 00:33:37;;;;;;;29.05;14.57;;;;;;;18.42;64.33;99040.13;4946085;29;20124;-65
2023/04/07 00:36:07;;;;;;;26.48;14.25;;;;;;;18.31;64.62;99041.78;4945565;29;20146;-64
2023/04/07 00:38:37;;;;;;;27.23;14.18;;;;;;;18.29;64.27;99045.72;4945978;28;20049;-63
2023/04/07 00:41:07;;;;;;;29.13;13.75;;;;;;;18.28;63.16;99046.75;4927945;29;20687;-63
2023/04/07 00:43:36;;;;;;;27.92;13.80;;;;;;;18.24;63.43;99049.09;4941484;29;20075;-63
2023/04/07 00:46:06;;;;;;;30.83;14.38;;;;;;;18.31;64.10;99047.13;4945446;29;20134;-64
2023/04/07 00:48:36;;;;;;;25.45;13.88;;;;;;;18.24;64.21;99057.16;4945464;29;20070;-63
2023/04/07 00:51:06;;;;;;;24.60;12.98;;;;;;;18.26;64.33;99056.94;4945277;28;20428;-63
2023/04/07 00:53:36;;;;;;;28.67;13.90;;;;;;;18.22;64.65;99048.53;4945771;29;20051;-63
2023/04/07 00:56:06;;;;;;;29.40;14.30;;;;;;;18.19;63.39;99051.66;4943960;29;20047;-63
2023/04/07 00:58:35;;;;;;;28.33;15.50;;;;;;;18.24;62.86;99056.31;4944895;29;20062;-63
2023/04/07 01:01:12;;;;;;;28.83;14.43;;;;;;;18.28;62.83;99060.16;4940941;29;20097;-63
2023/04/07 01:03:42;;;;;;;26.67;14.00;;;;;;;18.38;62.45;99071.13;4927459;29;20066;-62
2023/04/07 01:06:17;;;;;;;26.65;14.13;;;;;;;18.41;62.54;99068.81;4940108;29;20057;-62
2023/04/07 01:08:53;;;;;;;26.75;13.32;;;;;;;18.47;61.89;99067.06;4944447;29;20169;-63
2023/04/07 01:11:32;;;;;;;26.63;14.15;;;;;;;18.52;62.22;99071.72;4939492;29;20584;-63
2023/04/07 01:14:03;;;;;;;28.75;14.35;;;;;;;18.57;62.30;99071.88;4926344;29;20043;-64
2023/04/07 01:16:57;;;;;;;22.63;13.57;;;;;;;18.57;62.57;99075.38;4934590;29;20059;-64
2023/04/07 01:20:06;;;;;;;35.00;14.15;;;;;;;18.65;63.14;99072.31;4938986;29;20130;-63
2023/04/07 01:22:45;;;;;;;29.60;14.93;;;;;;;18.67;62.92;99075.59;4888360;29;20036;-64
2023/04/07 01:25:22;;;;;;;26.83;14.23;;;;;;;18.75;63.39;99085.16;4938054;29;20051;-64
2023/04/07 01:27:53;;;;;;;24.13;14.27;;;;;;;18.83;63.77;99082.09;4936133;29;20054;-64
2023/04/07 01:30:23;;;;;;;27.50;14.27;;;;;;;18.85;61.67;99086.16;4944259;29;20055;-63
2023/04/07 01:32:54;;;;;;;33.58;14.18;;;;;;;19.00;62.81;99093.72;4944297;29;20114;-63
2023/04/07 01:35:25;;;;;;;25.45;14.48;;;;;;;19.04;62.17;99096.75;4932364;29;20063;-63
2023/04/07 01:37:56;;;;;;;25.45;14.23;;;;;;;19.11;62.25;99092.91;4941794;28;20070;-63
2023/04/07 01:40:28;;;;;;;25.80;14.02;;;;;;;19.19;62.60;99092.53;4912845;29;20051;-63
2023/04/07 01:42:59;;;;;;;31.55;13.65;;;;;;;19.27;61.55;99096.69;4925401;29;20364;-63
2023/04/07 01:45:31;;;;;;;24.85;13.57;;;;;;;19.32;61.10;99096.78;4943296;29;20412;-62
2023/04/07 01:48:05;;;;;;;26.08;13.55;;;;;;;19.47;60.58;99099.78;4942841;29;20039;-61
2023/04/07 01:50:35;;;;;;;;;;;;;;;19.58;61.18;99104.31;4939039;28;20043;-63
2023/04/07 01:53:06;;;;;;;29.27;12.95;;;;;;;19.68;60.65;99109.88;4943983;29;20037;-63
2023/04/07 01:55:37;;;;;;;27.60;13.77;;;;;;;19.84;59.80;99110.13;4945491;29;20051;-63
2023/04/07 01:58:09;;;;;;;34.65;13.60;;;;;;;20.00;60.36;99106.66;4927931;29;20634;-63
2023/04/07 02:00:42;;;;;;;25.83;13.82;;;;;;;20.12;59.55;99113.59;4941123;29;20043;-63
2023/04/07 02:03:22;;;;;;;24.90;13.10;;;;;;;20.31;58.99;99121.47;4926528;28;20053;-62
2023/04/07 02:05:56;;;;;;;25.00;12.60;;;;;;;20.48;59.20;99123.06;4948104;28;20541;-63
2023/04/07 02:08:31;;;;;;;25.95;12.70;;;;;;;20.63;58.37;99123.28;4943328;28;20047;-63
2023/04/07 02:11:02;;;;;;;24.48;12.13;;;;;;;20.93;57.92;99119.41;4945915;29;20039;-63
2023/04/07 02:13:37;;;;;;;25.75;10.90;;;;;;;21.51;55.91;99118.78;4944825;28;20055;-63
2023/04/07 02:16:11;;;;;;;31.33;9.65;;;;;;;22.35;51.73;99116.34;4947460;28;20043;-64
2023/04/07 02:18:42;;;;;;;38.35;10.00;;;;;;;22.83;50.21;99116.19;4948228;29;20096;-63
2023/04/07 02:21:14;;;;;;;22.38;9.73;;;;;;;23.35;49.00;99120.72;4929605;29;20051;-63
2023/04/07 02:23:46;;;;;;;30.98;10.00;;;;;;;23.90;46.56;99117.34;4931936;29;20039;-64
2023/04/07 02:26:16;;;;;;;38.00;9.57;;;;;;;24.20;47.76;99118.50;4927922;29;20058;-63
2023/04/07 02:28:45;;;;;;;21.08;8.85;;;;;;;24.38;45.82;99126.91;4949293;29;20054;-62
2023/04/07 02:31:17;;;;;;;29.60;9.98;;;;;;;24.74;45.21;99122.22;4929146;29;20055;-63
2023/04/07 02:33:46;;;;;;;26.65;10.77;;;;;;;25.23;42.53;99127.81;4930802;29;20097;-65
2023/04/07 02:36:16;;;;;;;22.58;11.50;;;;;;;25.19;43.19;99134.88;4938367;29;20413;-63
2023/04/07 02:38:45;;;;;;;25.20;11.73;;;;;;;25.38;42.33;99135.88;4912607;29;20048;-63
2023/04/07 02:41:14;;;;;;;34.10;13.25;;;;;;;25.25;44.20;99138.38;4927108;29;20538;-63
2023/04/07 02:43:44;;;;;;;27.17;12.38;;;;;;;25.27;39.29;99130.78;4947455;29;20059;-64
2023/04/07 02:46:15;;;;;;;33.30;15.18;;;;;;;25.20;43.36;99135.69;4949998;28;20055;-64
2023/04/07 02:48:44;;;;;;;37.88;15.13;;;;;;;25.38;43.54;99141.31;4948330;29;20051;-64
2023/04/07 02:51:14;;;;;;;36.38;16.67;;;;;;;25.13;42.19;99141.41;4927942;29;20048;-63
2023/04/07 02:53:44;;;;;;;34.95;16.50;;;;;;;24.98;40.91;99134.13;4920463;29;20047;-63
2023/04/07 02:56:14;;;;;;;43.75;16.73;;;;;;;25.07;43.21;99142.50;4944854;29;20043;-63
2023/04/07 02:58:43;;;;;;;33.60;15.98;;;;;;;25.02;44.42;99142.53;4931739;29;20062;-62
2023/04/07 03:01:13;;;;;;;31.17;16.15;;;;;;;25.16;44.81;99145.47;4944329;29;20062;-62
2023/04/07 03:03:43;;;;;;;60.65;18.38;;;;;;;24.79;44.37;99143.91;4930608;29;20658;-63
2023/04/07 03:06:21;;;;;;;79.28;18.75;;;;;;;24.58;45.49;99150.44;4930839;29;20130;-64
2023/04/07 03:09:10;;;;;;;39.97;15.80;;;;;;;24.58;42.88;99145.03;4949206;28;20062;-63
2023/04/07 03:11:40;;;;;;;32.40;15.57;;;;;;;24.64;42.94;99149.34;4953965;28;20113;-63
2023/04/07 03:14:10;;;;;;;45.20;16.70;;;;;;;24.55;43.14;99159.94;4928138;29;20071;-63
2023/04/07 03:16:45;;;;;;;29.92;16.02;;;;;;;24.76;43.48;99152.59;4938142;29;20849;-63
2023/04/07 03:19:15;;;;;;;41.25;16.48;;;;;;;24.60;44.58;99156.41;4930532;29;20045;-64
2023/04/07 03:21:48;;;;;;;76.13;20.02;;;;;;;24.56;43.08;99163.47;4927679;29;20043;-63
2023/04/07 03:24:18;;;;;;;31.95;15.05;;;;;;;24.86;43.01;99165.34;4939984;28;20063;-63
2023/04/07 03:26:47;;;;;;;53.63;16.08;;;;;;;25.07;43.44;99164.19;4932680;29;20051;-64
2023/04/07 03:29:23;;;;;;;37.47;16.48;;;;;;;25.36;44.50;99177.91;4951220;28;20054;-64
2023/04/07 03:31:53;;;;;;;35.38;17.35;;;;;;;25.40;43.64;99174.38;4949806;28;20047;-64
2023/04/07 03:34:24;;;;;;;44.72;17.75;;;;;;;25.34;43.31;99172.78;4946075;28;20055;-64
2023/04/07 03:36:57;;;;;;;32.78;16.10;;;;;;;25.40;43.47;99176.28;4959755;28;20462;-63
2023/04/07 03:39:29;;;;;;;34.97;18.75;;;;;;;25.12;41.82;99166.09;4930056;29;20058;-63
2023/04/07 03:42:01;;;;;;;29.52;17.65;;;;;;;25.08;42.99;99184.81;4927101;29;20044;-63
2023/04/07 03:44:33;;;;;;;29.53;14.90;;;;;;;25.00;42.18;99194.28;4943224;28;20073;-63
2023/04/07 03:47:02;;;;;;;28.95;14.68;;;;;;;24.93;41.34;99191.06;4930687;29;20277;-64
2023/04/07 03:49:33;;;;;;;39.10;14.65;;;;;;;25.02;40.06;99192.13;4933789;28;20562;-63
2023/04/07 03:52:02;;;;;;;37.65;15.82;;;;;;;25.08;41.60;99192.94;4927012;29;20044;-62
2023/04/07 03:54:34;;;;;;;33.55;14.63;;;;;;;25.15;44.77;99196.16;4927332;29;20043;-64
2023/04/07 03:57:03;;;;;;;28.70;15.75;;;;;;;25.22;41.74;99193.97;4928428;29;20044;-66
2023/04/07 03:59:37;;;;;;;35.38;15.38;;;;;;;25.13;39.57;99206.47;4931639;29;20062;-62
2023/04/07 04:02:07;;;;;;;32.58;14.52;;;;;;;25.28;41.41;99203.72;4945608;28;20051;-63
2023/04/07 04:04:37;;;;;;;31.48;17.15;;;;;;;25.35;41.94;99203.44;4946332;28;20443;-62
2023/04/07 04:07:08;;;;;;;33.25;19.33;;;;;;;25.26;41.70;99202.38;4945641;29;20087;-64
2023/04/07 04:09:48;;;;;;;40.88;19.75;;;;;;;25.36;40.35;99205.84;4945935;28;20130;-62
2023/04/07 04:12:18;;;;;;;55.85;23.58;;;;;;;25.43;39.14;99205.56;4926651;29;20492;-64
2023/04/07 04:14:59;;;;;;;36.88;19.80;;;;;;;25.67;41.89;99211.22;4937934;29;20047;-63
2023/04/07 04:17:30;;;;;;;45.85;23.17;;;;;;;25.81;40.85;99212.19;4929480;29;20791;-63
2023/04/07 04:19:59;;;;;;;46.55;22.25;;;;;;;25.99;41.07;99208.03;4922033;29;20048;-62
2023/04/07 04:22:40;;;;;;;31.02;17.77;;;;;;;26.08;41.34;99209.88;4922303;29;20062;-63
2023/04/07 04:25:11;;;;;;;39.08;19.92;;;;;;;26.22;41.98;99216.34;4946314;28;20055;-64
2023/04/07 04:27:46;;;;;;;35.42;20.08;;;;;;;26.25;39.70;99217.66;4929700;29;20117;-63
2023/04/07 04:30:19;;;;;;;45.30;20.00;;;;;;;26.52;40.32;99215.31;4952429;28;20067;-63
2023/04/07 04:32:57;;;;;;;38.88;21.60;;;;;;;26.78;39.05;99216.72;4924834;29;20067;-63
2023/04/07 04:35:45;;;;;;;32.15;17.75;;;;;;;27.17;38.87;99213.91;4945252;28;20109;-65
2023/04/07 04:38:19;;;;;;;34.53;20.13;;;;;;;27.46;39.66;99210.31;4928801;29;20929;-65
2023/04/07 04:40:57;;;;;;;33.85;20.25;;;;;;;27.73;38.94;99209.75;4927790;29;20494;-64
2023/04/07 04:43:30;;;;;;;36.97;19.25;;;;;;;28.24;37.67;99207.16;4922792;29;20525;-63
2023/04/07 04:46:01;;;;;;;38.65;20.60;;;;;;;28.50;36.77;99211.91;4928682;29;20050;-63
2023/04/07 04:48:36;;;;;;;36.92;19.25;;;;;;;27.88;33.00;99212.28;4928707;29;20043;-63
2023/04/07 04:51:07;;;;;;;36.42;20.70;;;;;;;28.31;32.71;99211.13;4932651;28;20440;-64
2023/04/07 04:53:43;;;;;;;36.10;20.13;;;;;;;29.09;35.87;99212.28;4940370;28;20047;-64
2023/04/07 04:56:13;;;;;;;39.20;19.63;;;;;;;29.08;35.40;99214.19;4944677;28;20142;-64
2023/04/07 04:58:46;;;;;;;42.80;23.05;;;;;;;29.10;33.46;99212.00;4945526;29;20055;-65
2023/04/07 05:01:24;;;;;;;40.25;22.17;;;;;;;29.08;36.16;99219.66;4928027;29;20055;-65
2023/04/07 05:04:02;;;;;;;42.72;24.60;;;;;;;29.39;33.46;99204.34;4927612;29;20210;-66
2023/04/07 05:06:32;;;;;;;38.70;22.08;;;;;;;29.46;35.07;99212.16;4928030;29;20051;-65
2023/04/07 05:09:07;;;;;;;43.45;22.88;;;;;;;29.40;35.30;99216.09;4924339;29;20102;-63
2023/04/07 05:11:43;;;;;;;45.70;21.80;;;;;;;29.60;37.37;99223.88;4944786;28;20071;-63
2023/04/07 05:14:12;;;;;;;48.85;21.65;;;;;;;29.76;35.39;99210.69;4941206;29;20055;-63
2023/04/07 05:16:48;;;;;;;41.33;20.42;;;;;;;29.85;35.44;99215.13;4925799;29;20051;-63
2023/04/07 05:19:21;;;;;;;45.28;21.15;;;;;;;29.82;34.88;99210.31;4926014;29;20062;-64
2023/04/07 05:21:55;;;;;;;38.85;21.45;;;;;;;30.05;33.62;99218.59;4936202;29;20603;-64
2023/04/07 05:24:28;;;;;;;39.60;19.15;;;;;;;29.82;31.51;99209.50;4919430;29;20444;-62
2023/04/07 05:27:00;;;;;;;34.40;18.25;;;;;;;29.99;35.67;99212.41;4926442;29;20150;-63
2023/04/07 05:29:31;;;;;;;41.42;17.50;;;;;;;30.17;32.83;99211.47;4924983;29;20040;-63
2023/04/07 05:32:02;;;;;;;30.35;15.43;;;;;;;30.02;32.70;99211.78;4939832;29;20047;-63
2023/04/07 05:34:31;;;;;;;31.77;15.52;;;;;;;30.11;33.52;99212.69;4917513;29;20043;-66
2023/04/07 05:37:01;;;;;;;27.90;14.63;;;;;;;30.05;34.32;99219.38;4925685;29;20134;-64
2023/04/07 05:39:30;;;;;;;28.23;12.25;;;;;;;30.11;31.89;99218.16;4925274;29;20147;-65
2023/04/07 05:42:05;;;;;;;29.40;12.10;;;;;;;30.47;32.57;99215.41;4954315;28;20055;-68
2023/04/07 05:44:36;;;;;;;24.20;10.95;;;;;;;30.46;33.01;99208.31;4944448;28;20543;-63
2023/04/07 05:47:07;;;;;;;28.23;10.98;;;;;;;30.30;34.98;99202.41;4944828;29;20161;-69
2023/04/07 05:49:44;;;;;;;28.15;11.98;;;;;;;30.25;31.45;99207.97;4927350;29;20064;-64
2023/04/07 05:52:14;;;;;;;25.88;11.00;;;;;;;30.55;32.58;99206.47;4934898;29;20048;-66
2023/04/07 05:54:50;;;;;;;29.15;10.82;;;;;;;30.27;31.16;99199.50;4925647;29;20127;-67
2023/04/07 05:57:21;;;;;;;29.83;11.38;;;;;;;30.12;32.39;99211.56;4944712;29;20075;-66
2023/04/07 05:59:51;;;;;;;29.10;10.88;;;;;;;30.54;32.46;99207.56;4928422;29;20052;-65
2023/04/07 06:02:21;;;;;;;27.67;10.02;;;;;;;30.44;31.70;99201.53;4942306;29;20162;-64
2023/04/07 06:04:52;;;;;;;23.33;8.98;;;;;;;30.68;32.65;99202.03;4928514;29;20052;-67
2023/04/07 06:07:22;;;;;;;23.25;9.13;;;;;;;30.66;32.57;99199.63;4920126;29;20128;-68
2023/04/07 06:09:57;;;;;;;19.27;8.82;;;;;;;30.63;29.38;99196.69;4947287;29;20043;-66
2023/04/07 06:12:38;;;;;;;25.63;8.32;;;;;;;30.69;29.66;99200.94;4914824;29;20150;-67
2023/04/07 06:15:08;;;;;;;28.23;8.60;;;;;;;30.65;28.39;99197.22;4941671;29;20058;-66
2023/04/07 06:17:38;;;;;;;23.85;7.78;;;;;;;30.05;27.71;99194.78;4942615;29;20142;-66
2023/04/07 06:20:08;;;;;;;26.38;7.68;;;;;;;30.71;29.64;99201.44;4945245;28;20169;-66
2023/04/07 06:22:38;;;;;;;23.88;7.55;;;;;;;31.10;29.84;99195.22;4945964;28;20059;-69
2023/04/07 06:25:08;;;;;;;18.77;6.65;;;;;;;30.74;27.72;99187.94;4939580;29;20071;-64
2023/04/07 06:27:38;;;;;;;23.60;6.78;;;;;;;30.85;31.21;99188.47;4927319;29;20511;-67
2023/04/07 06:30:09;;;;;;;25.33;5.72;;;;;;;31.02;26.87;99180.41;4941509;29;20379;-61
2023/04/07 06:32:39;;;;;;;25.15;6.28;;;;;;;31.04;29.70;99177.31;4922572;29;20139;-62
2023/04/07 06:35:08;;;;;;;23.38;6.18;;;;;;;30.89;28.86;99178.50;4937777;29;20051;-62
2023/04/07 06:37:38;;;;;;;28.75;6.22;;;;;;;31.06;30.73;99181.38;4946874;29;20035;-63
2023/04/07 06:40:08;;;;;;;22.52;6.00;;;;;;;30.73;26.71;99171.84;4944448;29;20039;-66
2023/04/07 06:42:37;;;;;;;23.05;5.55;;;;;;;30.82;31.77;99169.13;4943139;29;20105;-65
2023/04/07 06:45:15;;;;;;;19.27;5.97;;;;;;;30.82;28.38;99172.69;4949526;28;20071;-65
2023/04/07 06:47:44;;;;;;;19.58;4.95;;;;;;;31.01;29.81;99172.50;4946817;29;20054;-68
2023/04/07 06:50:14;;;;;;;15.50;5.10;;;;;;;31.04;28.92;99172.66;4945454;29;20053;-62
2023/04/07 06:52:43;;;;;;;22.17;6.18;;;;;;;30.85;27.72;99172.06;4941974;29;20047;-63
2023/04/07 06:55:14;;;;;;;22.38;5.18;;;;;;;30.76;28.69;99165.72;4944222;29;20138;-63
2023/04/07 06:57:43;;;;;;;20.27;5.10;;;;;;;30.77;29.07;99161.88;4942030;29;20040;-65
2023/04/07 07:00:13;;;;;;;17.80;5.40;;;;;;;30.81;28.90;99156.56;4945681;28;20051;-64
2023/04/07 07:02:44;;;;;;;19.77;5.43;;;;;;;30.84;30.29;99154.03;4944220;29;20059;-64
2023/04/07 07:05:14;;;;;;;26.35;5.00;;;;;;;30.58;27.47;99153.09;4944003;29;20068;-67
2023/04/07 07:07:43;;;;;;;21.52;5.03;;;;;;;30.68;26.89;99152.81;4872239;29;2162108;-63
2023/04/07 07:10:13;;;;;;;26.27;5.13;;;;;;;30.97;29.95;99146.84;4945072;28;20059;-64
2023/04/07 07:12:43;;;;;;;24.60;5.10;;;;;;;30.95;31.50;99136.22;4943759;28;20130;-65
2023/04/07 07:15:12;;;;;;;17.85;4.22;;;;;;;30.82;28.92;99142.59;4945822;28;20089;-65
2023/04/07 07:17:42;;;;;;;23.60;4.95;;;;;;;30.69;26.63;99138.03;4944981;29;20051;-68
2023/04/07 07:20:13;;;;;;;18.85;4.28;;;;;;;30.56;29.32;99131.53;4927737;29;20134;-62
2023/04/07 07:22:42;;;;;;;17.80;3.78;;;;;;;30.50;26.71;99137.41;4943662;28;20061;-62
2023/04/07 07:25:12;;;;;;;14.93;3.95;;;;;;;30.54;27.31;99131.03;4940724;29;20469;-65
2023/04/07 07:27:41;;;;;;;12.85;3.08;;;;;;;30.56;23.88;99119.78;4947640;28;20704;-67
2023/04/07 07:30:11;;;;;;;18.60;4.53;;;;;;;30.79;25.62;99126.81;4927096;29;20063;-68
2023/04/07 07:32:40;;;;;;;16.60;4.00;;;;;;;30.99;27.65;99128.19;4941085;29;20051;-65
2023/04/07 07:35:10;;;;;;;14.27;3.90;;;;;;;30.95;26.40;99125.28;4945422;29;20043;-64
2023/04/07 07:37:39;;;;;;;19.45;4.03;;;;;;;31.07;26.12;99122.00;4944324;29;20094;-64
2023/04/07 07:40:08;;;;;;;16.85;3.70;;;;;;;31.15;28.89;99116.53;4945202;29;20074;-64
2023/04/07 07:42:38;;;;;;;14.38;3.15;;;;;;;30.79;24.31;99110.41;4942411;29;20057;-64
2023/04/07 07:45:08;;;;;;;17.27;3.28;;;;;;;31.04;24.73;99114.38;4945386;28;20110;-67
2023/04/07 07:47:40;;;;;;;19.88;3.42;;;;;;;31.03;24.98;99112.78;4945310;29;20051;-66
2023/04/07 07:50:11;;;;;;;10.63;3.03;;;;;;;30.85;23.80;99109.13;4942922;28;20162;-66
2023/04/07 07:52:40;;;;;;;15.60;2.83;;;;;;;30.72;24.29;99099.91;4945645;29;20055;-65
2023/04/07 07:55:10;;;;;;;16.65;3.05;;;;;;;30.52;21.79;99096.91;4941485;29;20126;-65
2023/04/07 07:57:39;;;;;;;12.00;3.50;;;;;;;30.59;24.25;99089.88;4924859;29;20067;-64
2023/04/07 08:00:10;;;;;;;18.08;3.03;;;;;;;30.24;22.86;99088.84;4940545;29;20106;-62
2023/04/07 08:02:42;;;;;;;15.25;2.63;;;;;;;30.44;26.45;99092.19;4942860;28;20051;-62
2023/04/07 08:05:12;;;;;;;14.88;2.60;;;;;;;30.44;20.74;99087.53;4942825;29;20049;-63
2023/04/07 08:07:42;;;;;;;14.32;3.08;;;;;;;30.45;23.07;99088.38;4936804;29;20051;-64
2023/04/07 08:10:12;;;;;;;19.05;3.88;;;;;;;30.44;25.79;99079.31;4942840;28;20044;-64
2023/04/07 08:12:41;;;;;;;14.65;3.65;;;;;;;30.39;25.09;99078.66;4931448;29;20483;-64
2023/04/07 08:15:10;;;;;;;10.55;2.60;;;;;;;30.39;21.99;99078.66;4936756;29;20039;-64
2023/04/07 08:17:40;;;;;;;17.20;3.00;;;;;;;30.42;25.02;99067.88;4941091;28;20066;-65
2023/04/07 08:20:10;;;;;;;16.83;3.50;;;;;;;30.37;24.52;99072.66;4943278;29;20071;-69
2023/04/07 08:22:40;;;;;;;11.73;3.30;;;;;;;30.35;23.33;99062.06;4944414;29;20043;-68
2023/04/07 08:25:09;;;;;;;21.25;4.82;;;;;;;30.30;24.89;99068.47;4943177;29;20078;-68
2023/04/07 08:27:39;;;;;;;9.98;3.53;;;;;;;30.30;24.79;99060.28;4936593;29;20134;-69
2023/04/07 08:30:09;;;;;;;19.88;3.60;;;;;;;30.31;25.74;99050.97;4944788;29;20062;-65
2023/04/07 08:32:43;;;;;;;12.20;2.72;;;;;;;30.27;24.18;99049.94;4948718;28;20566;-64
2023/04/07 08:35:13;;;;;;;15.13;3.47;;;;;;;30.22;24.29;99041.09;4934624;29;20036;-63
2023/04/07 08:37:43;;;;;;;16.50;3.90;;;;;;;30.23;22.60;99032.56;4941929;28;20042;-66
2023/04/07 08:40:12;;;;;;;15.63;3.65;;;;;;;30.29;23.89;99034.06;4936595;29;20048;-64
2023/04/07 08:42:46;;;;;;;9.73;2.92;;;;;;;30.42;24.80;99032.34;4929337;29;20100;-61
2023/04/07 08:45:17;;;;;;;16.73;2.78;;;;;;;30.32;24.53;99036.16;4943818;28;20146;-61
2023/04/07 08:47:48;;;;;;;11.60;2.90;;;;;;;30.31;24.31;99028.28;4932618;29;20074;-67
2023/04/07 08:50:19;;;;;;;14.73;3.22;;;;;;;30.31;24.75;99028.28;4926983;29;20055;-71
2023/04/07 08:52:56;;;;;;;14.88;3.38;;;;;;;30.21;24.29;99017.63;4909949;29;20130;-67
2023/04/07 08:55:26;;;;;;;12.07;2.92;;;;;;;30.28;23.75;99017.97;4940193;29;20087;-64
2023/04/07 08:57:57;;;;;;;21.20;3.35;;;;;;;30.34;23.22;99012.06;4945427;29;20055;-64
2023/04/07 09:00:30;;;;;;;15.10;3.30;;;;;;;30.32;24.56;99008.81;4940532;29;20115;-65
2023/04/07 09:03:02;;;;;;;18.27;3.83;;;;;;;30.27;25.60;99011.69;4942410;29;20058;-67
2023/04/07 09:05:32;;;;;;;12.93;3.75;;;;;;;30.19;24.96;99007.00;4937432;29;20051;-67
2023/04/07 09:08:03;;;;;;;10.55;3.70;;;;;;;29.95;26.46;99001.06;4941178;28;20134;-67
2023/04/07 09:10:32;;;;;;;18.23;4.15;;;;;;;30.06;23.95;98994.22;4941768;28;20381;-69
2023/04/07 09:13:01;;;;;;;11.40;3.17;;;;;;;30.10;24.45;98997.13;4934235;28;20043;-65
2023/04/07 09:15:31;;;;;;;15.05;3.10;;;;;;;30.02;24.07;98989.69;4932616;29;20047;-68
2023/04/07 09:18:02;;;;;;;12.13;3.47;;;;;;;29.94;22.93;98985.00;4935495;28;20062;-66
2023/04/07 09:21:02;;;;;;;16.10;3.38;;;;;;;30.09;24.55;98992.81;4942937;29;20538;-61
2023/04/07 09:23:36;;;;;;;15.43;2.83;;;;;;;30.14;23.22;98985.25;4940485;28;20047;-63
2023/04/07 09:26:20;;;;;;;13.80;3.00;;;;;;;30.10;24.51;98978.00;4940780;28;20043;-64
2023/04/07 09:28:58;;;;;;;13.48;3.53;;;;;;;30.08;22.07;98975.59;4924326;29;20107;-63
2023/04/07 09:31:47;;;;;;;13.13;3.22;;;;;;;30.06;22.50;98977.81;4935452;29;20487;-63
2023/04/07 09:34:28;;;;;;;11.15;2.78;;;;;;;30.14;21.65;98968.88;4939769;28;20047;-61
2023/04/07 09:36:58;;;;;;;12.63;3.03;;;;;;;30.15;22.84;98973.22;4935126;28;20087;-59
2023/04/07 09:39:28;;;;;;;11.80;3.58;;;;;;;30.12;25.24;98971.13;4944534;29;20074;-62
2023/04/07 09:41:58;;;;;;;18.75;2.38;;;;;;;30.17;22.55;98964.72;4936438;29;20843;-60
2023/04/07 09:44:27;;;;;;;15.57;3.22;;;;;;;30.18;22.70;98961.66;4938584;29;20062;-60
2023/04/07 09:46:59;;;;;;;11.63;3.10;;;;;;;30.09;22.50;98960.84;4936979;29;20424;-61
2023/04/07 09:49:29;;;;;;;15.85;2.90;;;;;;;30.08;22.39;98953.75;4928983;29;20047;-61
2023/04/07 09:52:03;;;;;;;12.65;3.05;;;;;;;30.10;22.89;98954.22;4939220;29;20055;-61
2023/04/07 09:54:35;;;;;;;17.17;3.25;;;;;;;30.10;22.14;98948.75;4944313;28;20055;-61
2023/04/07 09:57:06;;;;;;;10.45;2.92;;;;;;;30.19;24.22;98948.78;4945194;28;20168;-61
2023/04/07 09:59:39;;;;;;;10.57;2.78;;;;;;;30.04;21.86;98954.69;4945887;28;20070;-61
2023/04/07 10:02:09;;;;;;;;;;;;;;;29.97;22.74;98946.13;4944463;28;20507;-61
2023/04/07 10:04:40;;;;;;;12.75;3.08;;;;;;;29.84;24.36;98948.59;4945342;29;19922;-61
2023/04/07 10:07:09;;;;;;;7.57;2.75;;;;;;;29.79;24.73;98935.06;4945759;28;20094;-61
2023/04/07 10:09:38;;;;;;;11.27;3.00;;;;;;;29.76;22.60;98935.69;4926538;29;20050;-61
2023/04/07 10:12:08;;;;;;;14.85;2.95;;;;;;;29.79;23.71;98937.00;4938765;29;20071;-60
2023/04/07 10:14:37;;;;;;;20.52;3.08;;;;;;;29.87;23.49;98939.00;4942032;28;20126;-62
2023/04/07 10:17:07;;;;;;;9.88;2.95;;;;;;;29.81;23.92;98935.56;4944775;29;20551;-60
2023/04/07 10:19:38;;;;;;;13.23;3.10;;;;;;;29.83;24.44;98932.50;4940001;29;20063;-60
2023/04/07 10:22:07;;;;;;;13.05;3.13;;;;;;;29.64;23.50;98926.47;4940222;28;20055;-60
2023/04/07 10:24:57;;;;;;;12.23;2.85;;;;;;;29.67;23.76;98923.91;4941026;28;20051;-64
2023/04/07 10:27:36;;;;;;;17.05;3.53;;;;;;;29.67;24.66;98920.38;4927320;29;20114;-63
2023/04/07 10:30:11;;;;;;;13.02;2.95;;;;;;;29.65;24.25;98915.22;4925409;29;20043;-64
2023/04/07 10:32:49;;;;;;;12.18;3.13;;;;;;;29.67;24.16;98918.47;4944122;29;20542;-63
2023/04/07 10:35:19;;;;;;;14.20;3.13;;;;;;;29.63;22.46;98920.19;4938954;28;20627;-61
2023/04/07 10:38:09;;;;;;;10.00;2.80;;;;;;;29.66;23.90;98924.22;4938505;29;20484;-63
2023/04/07 10:40:40;;;;;;;11.35;2.78;;;;;;;29.60;23.03;98925.47;4947597;28;20059;-61
2023/04/07 10:43:10;;;;;;;9.98;2.88;;;;;;;29.46;24.67;98920.09;4944380;29;20050;-61
2023/04/07 10:45:51;;;;;;;13.10;2.63;;;;;;;29.45;22.83;98915.75;4945586;29;20158;-64
2023/04/07 10:48:21;;;;;;;10.48;2.55;;;;;;;29.44;21.86;98912.22;4945003;29;20051;-61
2023/04/07 10:51:09;;;;;;;8.43;2.72;;;;;;;29.45;22.73;98905.63;4948609;28;20114;-60
2023/04/07 10:54:21;;;;;;;8.57;2.75;;;;;;;29.44;23.39;98905.94;4945697;29;20051;-62
2023/04/07 10:57:12;;;;;;;11.90;2.10;;;;;;;29.41;24.04;98901.91;4946067;29;20047;-59
2023/04/07 11:00:19;;;;;;;14.15;2.65;;;;;;;29.40;24.23;98904.94;4945317;29;20455;-63
2023/04/07 11:02:50;;;;;;;6.82;2.08;;;;;;;29.34;22.83;98907.00;4941707;28;20130;-62
2023/04/07 11:05:22;;;;;;;10.52;2.10;;;;;;;29.31;23.37;98904.88;4945670;29;20054;-63
2023/04/07 11:07:58;;;;;;;5.32;2.08;;;;;;;29.22;23.22;98906.72;4907023;29;20735;-61
2023/04/07 11:10:27;;;;;;;7.32;1.73;;;;;;;29.19;22.88;98901.88;4945429;29;20475;-61
2023/04/07 11:13:02;;;;;;;6.80;2.33;;;;;;;29.15;23.28;98903.63;4932016;29;20138;-59
2023/04/07 11:15:36;;;;;;;8.82;2.75;;;;;;;29.14;22.95;98895.72;4946553;28;20665;-60
2023/04/07 11:18:21;;;;;;;8.13;3.35;;;;;;;29.14;22.77;98890.28;4947754;28;20043;-60
2023/04/07 11:20:59;;;;;;;14.52;3.58;;;;;;;29.14;23.65;98893.00;4948484;28;20138;-61
2023/04/07 11:23:37;;;;;;;14.80;2.83;;;;;;;29.08;23.82;98895.03;4936788;29;20159;-61
2023/04/07 11:26:07;;;;;;;9.73;2.30;;;;;;;29.09;22.23;98891.19;4942048;29;20047;-60
2023/04/07 11:28:54;;;;;;;18.60;2.30;;;;;;;29.03;23.03;98895.97;4603744;28;10000086;-61
2023/04/07 11:31:30;;;;;;;10.18;2.22;;;;;;;28.92;23.19;98891.06;4936531;28;20121;-62
2023/04/07 11:34:04;;;;;;;10.32;2.00;;;;;;;28.89;23.12;98894.41;4945300;28;20071;-58
2023/04/07 11:36:37;;;;;;;11.93;2.40;;;;;;;28.80;24.43;98897.06;4947457;28;20514;-64
2023/04/07 11:39:21;;;;;;;7.63;2.13;;;;;;;28.75;23.60;98891.72;4936169;29;20040;-61
2023/04/07 11:41:50;;;;;;;9.05;2.20;;;;;;;28.64;24.62;98890.28;4942969;29;20058;-62
2023/04/07 11:44:20;;;;;;;21.52;2.38;;;;;;;28.56;24.75;98893.75;4941756;28;20051;-61
2023/04/07 11:46:57;;;;;;;6.38;1.85;;;;;;;28.49;24.71;98896.91;4943847;28;20070;-58